sensor_id;sensor_type;location;lat;lon;timestamp;P1;durP1;ratioP1;P2;durP2;ratioP2
21979;SDS011;11154;48.558;9.234;2023-03-23T00:01:12;4.85;;;1.98;;
21979;SDS011;11154;48.558;9.234;2023-03-23T00:03:15;3.60;;;1.90;;
21979;SDS011;11154;48.558;9.234;2023-03-23T00:05:17;3.13;;;1.83;;
21979;SDS011;11154;48.558;9.234;2023-03-23T00:07:19;3.35;;;2.15;;
21979;SDS011;11154;48.558;9.234;2023-03-23T00:09:21;3.38;;;2.22;;
21979;SDS011;11154;48.558;9.234;2023-03-23T00:11:26;3.05;;;1.98;;
21979;SDS011;11154;48.558;9.234;2023-03-23T00:13:30;3.55;;;2.17;;
21979;SDS011;11154;48.558;9.234;2023-03-23T00:15:32;4.53;;;2.08;;
21979;SDS011;11154;48.558;9.234;2023-03-23T00:17:35;3.53;;;1.70;;
21979;SDS011;11154;48.558;9.234;2023-03-23T00:19:37;3.08;;;1.98;;
21979;SDS011;11154;48.558;9.234;2023-03-23T00:21:45;3.17;;;1.83;;
21979;SDS011;11154;48.558;9.234;2023-03-23T00:23:47;3.40;;;1.83;;
21979;SDS011;11154;48.558;9.234;2023-03-23T00:25:49;2.78;;;1.83;;
21979;SDS011;11154;48.558;9.234;2023-03-23T00:27:55;4.85;;;1.52;;
21979;SDS011;11154;48.558;9.234;2023-03-23T00:29:57;2.20;;;1.75;;
21979;SDS011;11154;48.558;9.234;2023-03-23T00:31:58;2.22;;;1.80;;
21979;SDS011;11154;48.558;9.234;2023-03-23T00:34:00;3.05;;;1.60;;
21979;SDS011;11154;48.558;9.234;2023-03-23T00:36:04;6.72;;;2.10;;
21979;SDS011;11154;48.558;9.234;2023-03-23T00:38:08;2.88;;;1.70;;
21979;SDS011;11154;48.558;9.234;2023-03-23T00:40:10;3.05;;;1.70;;
21979;SDS011;11154;48.558;9.234;2023-03-23T00:42:13;3.50;;;1.50;;
21979;SDS011;11154;48.558;9.234;2023-03-23T00:44:17;1.80;;;1.30;;
21979;SDS011;11154;48.558;9.234;2023-03-23T00:46:23;2.20;;;1.52;;
21979;SDS011;11154;48.558;9.234;2023-03-23T00:48:25;2.42;;;1.75;;
21979;SDS011;11154;48.558;9.234;2023-03-23T00:50:28;3.08;;;1.90;;
21979;SDS011;11154;48.558;9.234;2023-03-23T00:52:29;2.40;;;1.75;;
21979;SDS011;11154;48.558;9.234;2023-03-23T00:54:31;2.95;;;2.10;;
21979;SDS011;11154;48.558;9.234;2023-03-23T00:56:34;6.00;;;1.95;;
21979;SDS011;11154;48.558;9.234;2023-03-23T00:58:36;4.20;;;2.08;;
21979;SDS011;11154;48.558;9.234;2023-03-23T01:00:39;2.40;;;1.60;;
21979;SDS011;11154;48.558;9.234;2023-03-23T01:02:42;3.75;;;1.92;;
21979;SDS011;11154;48.558;9.234;2023-03-23T01:04:44;5.00;;;1.90;;
21979;SDS011;11154;48.558;9.234;2023-03-23T01:06:48;5.93;;;1.92;;
21979;SDS011;11154;48.558;9.234;2023-03-23T01:08:50;4.18;;;1.98;;
21979;SDS011;11154;48.558;9.234;2023-03-23T01:11:00;3.40;;;1.92;;
21979;SDS011;11154;48.558;9.234;2023-03-23T01:13:03;3.17;;;2.08;;
21979;SDS011;11154;48.558;9.234;2023-03-23T01:15:06;7.03;;;2.35;;
21979;SDS011;11154;48.558;9.234;2023-03-23T01:17:09;4.30;;;2.17;;
21979;SDS011;11154;48.558;9.234;2023-03-23T01:19:11;4.63;;;3.08;;
21979;SDS011;11154;48.558;9.234;2023-03-23T01:21:15;4.97;;;3.38;;
21979;SDS011;11154;48.558;9.234;2023-03-23T01:23:18;5.80;;;4.03;;
21979;SDS011;11154;48.558;9.234;2023-03-23T01:25:20;9.25;;;3.60;;
21979;SDS011;11154;48.558;9.234;2023-03-23T01:27:22;6.15;;;3.00;;
21979;SDS011;11154;48.558;9.234;2023-03-23T01:29:23;3.53;;;2.63;;
21979;SDS011;11154;48.558;9.234;2023-03-23T01:31:25;7.05;;;2.35;;
21979;SDS011;11154;48.558;9.234;2023-03-23T01:33:29;2.58;;;1.70;;
21979;SDS011;11154;48.558;9.234;2023-03-23T01:35:31;4.63;;;1.98;;
21979;SDS011;11154;48.558;9.234;2023-03-23T01:37:32;3.58;;;1.80;;
21979;SDS011;11154;48.558;9.234;2023-03-23T01:39:36;2.20;;;1.67;;
21979;SDS011;11154;48.558;9.234;2023-03-23T01:41:37;2.88;;;1.58;;
21979;SDS011;11154;48.558;9.234;2023-03-23T01:43:53;3.53;;;1.92;;
21979;SDS011;11154;48.558;9.234;2023-03-23T01:45:55;4.32;;;1.95;;
21979;SDS011;11154;48.558;9.234;2023-03-23T01:47:59;2.38;;;1.83;;
21979;SDS011;11154;48.558;9.234;2023-03-23T01:50:06;2.38;;;1.73;;
21979;SDS011;11154;48.558;9.234;2023-03-23T01:52:09;1.92;;;1.65;;
21979;SDS011;11154;48.558;9.234;2023-03-23T01:54:17;4.75;;;1.80;;
21979;SDS011;11154;48.558;9.234;2023-03-23T01:56:22;3.63;;;2.05;;
21979;SDS011;11154;48.558;9.234;2023-03-23T01:58:30;2.95;;;1.65;;
21979;SDS011;11154;48.558;9.234;2023-03-23T02:00:34;3.65;;;1.50;;
21979;SDS011;11154;48.558;9.234;2023-03-23T02:02:37;2.80;;;1.73;;
21979;SDS011;11154;48.558;9.234;2023-03-23T02:04:39;1.80;;;1.48;;
21979;SDS011;11154;48.558;9.234;2023-03-23T02:06:43;2.35;;;1.83;;
21979;SDS011;11154;48.558;9.234;2023-03-23T02:08:45;1.92;;;1.48;;
21979;SDS011;11154;48.558;9.234;2023-03-23T02:10:50;1.88;;;1.65;;
21979;SDS011;11154;48.558;9.234;2023-03-23T02:12:52;2.65;;;1.67;;
21979;SDS011;11154;48.558;9.234;2023-03-23T02:14:54;3.08;;;2.03;;
21979;SDS011;11154;48.558;9.234;2023-03-23T02:16:57;2.83;;;1.77;;
21979;SDS011;11154;48.558;9.234;2023-03-23T02:19:07;1.90;;;1.60;;
21979;SDS011;11154;48.558;9.234;2023-03-23T02:24:08;2.63;;;1.70;;
21979;SDS011;11154;48.558;9.234;2023-03-23T02:26:28;3.25;;;1.90;;
21979;SDS011;11154;48.558;9.234;2023-03-23T02:28:50;3.60;;;2.10;;
21979;SDS011;11154;48.558;9.234;2023-03-23T02:31:12;3.00;;;2.20;;
21979;SDS011;11154;48.558;9.234;2023-03-23T02:33:38;3.28;;;2.25;;
21979;SDS011;11154;48.558;9.234;2023-03-23T02:35:45;4.13;;;2.20;;
21979;SDS011;11154;48.558;9.234;2023-03-23T02:37:55;2.72;;;2.17;;
21979;SDS011;11154;48.558;9.234;2023-03-23T02:40:02;3.10;;;2.10;;
21979;SDS011;11154;48.558;9.234;2023-03-23T02:42:09;3.85;;;2.42;;
21979;SDS011;11154;48.558;9.234;2023-03-23T02:44:14;2.97;;;2.15;;
21979;SDS011;11154;48.558;9.234;2023-03-23T02:46:17;2.08;;;1.88;;
21979;SDS011;11154;48.558;9.234;2023-03-23T02:48:22;3.58;;;2.17;;
21979;SDS011;11154;48.558;9.234;2023-03-23T02:50:30;3.63;;;2.17;;
21979;SDS011;11154;48.558;9.234;2023-03-23T02:52:35;2.75;;;2.08;;
21979;SDS011;11154;48.558;9.234;2023-03-23T02:54:39;3.08;;;2.00;;
21979;SDS011;11154;48.558;9.234;2023-03-23T02:56:42;3.13;;;2.08;;
21979;SDS011;11154;48.558;9.234;2023-03-23T02:58:45;2.72;;;1.67;;
21979;SDS011;11154;48.558;9.234;2023-03-23T03:00:46;1.92;;;1.73;;
21979;SDS011;11154;48.558;9.234;2023-03-23T03:02:50;2.10;;;1.80;;
21979;SDS011;11154;48.558;9.234;2023-03-23T03:04:56;2.65;;;1.90;;
21979;SDS011;11154;48.558;9.234;2023-03-23T03:07:19;2.67;;;1.92;;
21979;SDS011;11154;48.558;9.234;2023-03-23T03:09:52;2.75;;;1.80;;
21979;SDS011;11154;48.558;9.234;2023-03-23T03:11:58;2.35;;;1.77;;
21979;SDS011;11154;48.558;9.234;2023-03-23T03:14:07;2.17;;;1.85;;
21979;SDS011;11154;48.558;9.234;2023-03-23T03:16:13;2.60;;;2.00;;
21979;SDS011;11154;48.558;9.234;2023-03-23T03:18:20;2.92;;;1.90;;
21979;SDS011;11154;48.558;9.234;2023-03-23T03:20:26;2.35;;;1.70;;
21979;SDS011;11154;48.558;9.234;2023-03-23T03:22:30;2.30;;;1.70;;
21979;SDS011;11154;48.558;9.234;2023-03-23T03:24:32;2.53;;;1.70;;
21979;SDS011;11154;48.558;9.234;2023-03-23T03:26:37;2.08;;;1.77;;
21979;SDS011;11154;48.558;9.234;2023-03-23T03:28:40;1.75;;;1.60;;
21979;SDS011;11154;48.558;9.234;2023-03-23T03:30:43;2.58;;;1.85;;
21979;SDS011;11154;48.558;9.234;2023-03-23T03:32:47;2.33;;;1.80;;
21979;SDS011;11154;48.558;9.234;2023-03-23T03:34:53;2.00;;;1.40;;
21979;SDS011;11154;48.558;9.234;2023-03-23T03:36:55;1.40;;;1.20;;
21979;SDS011;11154;48.558;9.234;2023-03-23T03:39:00;1.50;;;1.40;;
21979;SDS011;11154;48.558;9.234;2023-03-23T03:41:03;2.35;;;1.25;;
21979;SDS011;11154;48.558;9.234;2023-03-23T03:43:05;2.45;;;1.60;;
21979;SDS011;11154;48.558;9.234;2023-03-23T03:45:08;1.92;;;1.40;;
21979;SDS011;11154;48.558;9.234;2023-03-23T03:47:11;2.10;;;1.50;;
21979;SDS011;11154;48.558;9.234;2023-03-23T03:49:13;1.60;;;1.50;;
21979;SDS011;11154;48.558;9.234;2023-03-23T03:51:15;2.17;;;1.67;;
21979;SDS011;11154;48.558;9.234;2023-03-23T03:53:17;1.65;;;1.40;;
21979;SDS011;11154;48.558;9.234;2023-03-23T03:55:21;1.67;;;1.45;;
21979;SDS011;11154;48.558;9.234;2023-03-23T03:57:22;2.88;;;1.50;;
21979;SDS011;11154;48.558;9.234;2023-03-23T03:59:24;1.65;;;1.50;;
21979;SDS011;11154;48.558;9.234;2023-03-23T04:01:26;1.60;;;1.33;;
21979;SDS011;11154;48.558;9.234;2023-03-23T04:03:28;1.83;;;1.38;;
21979;SDS011;11154;48.558;9.234;2023-03-23T04:05:30;1.88;;;1.33;;
21979;SDS011;11154;48.558;9.234;2023-03-23T04:07:33;1.23;;;1.13;;
21979;SDS011;11154;48.558;9.234;2023-03-23T04:09:37;4.25;;;1.58;;
21979;SDS011;11154;48.558;9.234;2023-03-23T04:11:40;3.47;;;1.73;;
21979;SDS011;11154;48.558;9.234;2023-03-23T04:13:42;1.48;;;1.38;;
21979;SDS011;11154;48.558;9.234;2023-03-23T04:15:43;1.92;;;1.23;;
21979;SDS011;11154;48.558;9.234;2023-03-23T04:17:45;2.95;;;1.42;;
21979;SDS011;11154;48.558;9.234;2023-03-23T04:19:47;1.65;;;1.20;;
21979;SDS011;11154;48.558;9.234;2023-03-23T04:21:49;1.70;;;1.05;;
21979;SDS011;11154;48.558;9.234;2023-03-23T04:23:50;4.38;;;1.40;;
21979;SDS011;11154;48.558;9.234;2023-03-23T04:25:53;2.05;;;1.20;;
21979;SDS011;11154;48.558;9.234;2023-03-23T04:27:59;3.25;;;1.38;;
21979;SDS011;11154;48.558;9.234;2023-03-23T04:30:01;1.95;;;1.30;;
21979;SDS011;11154;48.558;9.234;2023-03-23T04:32:03;1.27;;;1.08;;
21979;SDS011;11154;48.558;9.234;2023-03-23T04:34:04;2.58;;;1.35;;
21979;SDS011;11154;48.558;9.234;2023-03-23T04:36:06;1.35;;;1.25;;
21979;SDS011;11154;48.558;9.234;2023-03-23T04:38:08;1.80;;;1.20;;
21979;SDS011;11154;48.558;9.234;2023-03-23T04:40:10;2.15;;;1.40;;
21979;SDS011;11154;48.558;9.234;2023-03-23T04:42:14;1.40;;;0.90;;
21979;SDS011;11154;48.558;9.234;2023-03-23T04:44:17;6.18;;;1.65;;
21979;SDS011;11154;48.558;9.234;2023-03-23T04:46:21;2.08;;;1.17;;
21979;SDS011;11154;48.558;9.234;2023-03-23T04:48:23;1.98;;;1.10;;
21979;SDS011;11154;48.558;9.234;2023-03-23T04:50:26;1.70;;;1.30;;
21979;SDS011;11154;48.558;9.234;2023-03-23T04:52:30;3.53;;;1.35;;
21979;SDS011;11154;48.558;9.234;2023-03-23T04:54:32;2.22;;;1.30;;
21979;SDS011;11154;48.558;9.234;2023-03-23T04:56:33;2.03;;;1.30;;
21979;SDS011;11154;48.558;9.234;2023-03-23T04:58:36;1.42;;;1.20;;
21979;SDS011;11154;48.558;9.234;2023-03-23T05:00:41;1.67;;;1.08;;
21979;SDS011;11154;48.558;9.234;2023-03-23T05:02:44;2.65;;;1.52;;
21979;SDS011;11154;48.558;9.234;2023-03-23T05:04:46;1.58;;;1.27;;
21979;SDS011;11154;48.558;9.234;2023-03-23T05:06:48;1.98;;;1.00;;
21979;SDS011;11154;48.558;9.234;2023-03-23T05:08:50;1.88;;;1.35;;
21979;SDS011;11154;48.558;9.234;2023-03-23T05:10:51;3.67;;;1.10;;
21979;SDS011;11154;48.558;9.234;2023-03-23T05:12:54;1.25;;;1.13;;
21979;SDS011;11154;48.558;9.234;2023-03-23T05:14:56;1.88;;;1.20;;
21979;SDS011;11154;48.558;9.234;2023-03-23T05:16:59;2.28;;;1.20;;
21979;SDS011;11154;48.558;9.234;2023-03-23T05:19:00;4.00;;;1.30;;
21979;SDS011;11154;48.558;9.234;2023-03-23T05:21:02;1.17;;;1.00;;
21979;SDS011;11154;48.558;9.234;2023-03-23T05:23:05;3.20;;;1.20;;
21979;SDS011;11154;48.558;9.234;2023-03-23T05:25:07;3.33;;;1.45;;
21979;SDS011;11154;48.558;9.234;2023-03-23T05:27:10;1.90;;;1.25;;
21979;SDS011;11154;48.558;9.234;2023-03-23T05:29:12;2.33;;;1.40;;
21979;SDS011;11154;48.558;9.234;2023-03-23T05:31:14;2.28;;;1.48;;
21979;SDS011;11154;48.558;9.234;2023-03-23T05:33:17;2.17;;;1.40;;
21979;SDS011;11154;48.558;9.234;2023-03-23T05:35:19;2.83;;;1.48;;
21979;SDS011;11154;48.558;9.234;2023-03-23T05:37:21;4.13;;;1.40;;
21979;SDS011;11154;48.558;9.234;2023-03-23T05:39:23;2.95;;;1.35;;
21979;SDS011;11154;48.558;9.234;2023-03-23T05:41:25;2.50;;;1.25;;
21979;SDS011;11154;48.558;9.234;2023-03-23T05:43:27;1.52;;;1.13;;
21979;SDS011;11154;48.558;9.234;2023-03-23T05:45:28;1.70;;;1.27;;
21979;SDS011;11154;48.558;9.234;2023-03-23T05:47:30;1.65;;;1.20;;
21979;SDS011;11154;48.558;9.234;2023-03-23T05:49:33;3.60;;;1.73;;
21979;SDS011;11154;48.558;9.234;2023-03-23T05:51:36;2.80;;;1.73;;
21979;SDS011;11154;48.558;9.234;2023-03-23T05:53:37;3.20;;;1.80;;
21979;SDS011;11154;48.558;9.234;2023-03-23T05:55:39;3.13;;;1.65;;
21979;SDS011;11154;48.558;9.234;2023-03-23T05:57:41;1.88;;;1.48;;
21979;SDS011;11154;48.558;9.234;2023-03-23T05:59:43;2.05;;;1.30;;
21979;SDS011;11154;48.558;9.234;2023-03-23T06:01:45;4.00;;;1.45;;
21979;SDS011;11154;48.558;9.234;2023-03-23T06:03:46;2.10;;;1.33;;
21979;SDS011;11154;48.558;9.234;2023-03-23T06:05:52;2.33;;;1.35;;
21979;SDS011;11154;48.558;9.234;2023-03-23T06:07:54;3.35;;;1.60;;
21979;SDS011;11154;48.558;9.234;2023-03-23T06:09:56;3.67;;;1.88;;
21979;SDS011;11154;48.558;9.234;2023-03-23T06:11:57;4.72;;;1.15;;
21979;SDS011;11154;48.558;9.234;2023-03-23T06:13:59;2.90;;;1.50;;
21979;SDS011;11154;48.558;9.234;2023-03-23T06:16:01;3.13;;;1.40;;
21979;SDS011;11154;48.558;9.234;2023-03-23T06:18:04;2.45;;;1.42;;
21979;SDS011;11154;48.558;9.234;2023-03-23T06:20:06;2.03;;;1.30;;
21979;SDS011;11154;48.558;9.234;2023-03-23T06:22:11;2.05;;;1.20;;
21979;SDS011;11154;48.558;9.234;2023-03-23T06:24:12;1.42;;;1.15;;
21979;SDS011;11154;48.558;9.234;2023-03-23T06:26:14;1.77;;;1.10;;
21979;SDS011;11154;48.558;9.234;2023-03-23T06:28:18;2.08;;;1.20;;
21979;SDS011;11154;48.558;9.234;2023-03-23T06:30:20;2.35;;;1.20;;
21979;SDS011;11154;48.558;9.234;2023-03-23T06:32:22;4.18;;;1.38;;
21979;SDS011;11154;48.558;9.234;2023-03-23T06:34:25;3.67;;;1.48;;
21979;SDS011;11154;48.558;9.234;2023-03-23T06:36:26;4.45;;;1.38;;
21979;SDS011;11154;48.558;9.234;2023-03-23T06:38:30;3.50;;;1.48;;
21979;SDS011;11154;48.558;9.234;2023-03-23T06:40:31;1.60;;;1.27;;
21979;SDS011;11154;48.558;9.234;2023-03-23T06:42:33;2.30;;;1.50;;
21979;SDS011;11154;48.558;9.234;2023-03-23T06:44:35;2.10;;;1.30;;
21979;SDS011;11154;48.558;9.234;2023-03-23T06:46:37;1.00;;;0.90;;
21979;SDS011;11154;48.558;9.234;2023-03-23T06:48:38;2.40;;;1.38;;
21979;SDS011;11154;48.558;9.234;2023-03-23T06:50:42;2.90;;;1.38;;
21979;SDS011;11154;48.558;9.234;2023-03-23T06:52:45;4.25;;;1.52;;
21979;SDS011;11154;48.558;9.234;2023-03-23T06:54:49;5.68;;;1.40;;
21979;SDS011;11154;48.558;9.234;2023-03-23T06:56:50;3.90;;;1.40;;
21979;SDS011;11154;48.558;9.234;2023-03-23T06:58:53;4.47;;;1.40;;
21979;SDS011;11154;48.558;9.234;2023-03-23T07:00:54;7.03;;;1.45;;
21979;SDS011;11154;48.558;9.234;2023-03-23T07:02:58;4.28;;;1.70;;
21979;SDS011;11154;48.558;9.234;2023-03-23T07:05:00;2.47;;;1.35;;
21979;SDS011;11154;48.558;9.234;2023-03-23T07:07:03;2.58;;;1.25;;
21979;SDS011;11154;48.558;9.234;2023-03-23T07:09:05;5.30;;;1.20;;
21979;SDS011;11154;48.558;9.234;2023-03-23T07:11:08;3.70;;;1.52;;
21979;SDS011;11154;48.558;9.234;2023-03-23T07:13:11;2.88;;;1.50;;
21979;SDS011;11154;48.558;9.234;2023-03-23T07:15:12;3.55;;;1.40;;
21979;SDS011;11154;48.558;9.234;2023-03-23T07:17:15;3.50;;;1.38;;
21979;SDS011;11154;48.558;9.234;2023-03-23T07:19:17;3.15;;;1.23;;
21979;SDS011;11154;48.558;9.234;2023-03-23T07:21:18;7.05;;;1.35;;
21979;SDS011;11154;48.558;9.234;2023-03-23T07:23:20;2.78;;;1.45;;
21979;SDS011;11154;48.558;9.234;2023-03-23T07:25:21;1.60;;;1.20;;
21979;SDS011;11154;48.558;9.234;2023-03-23T07:27:25;3.38;;;2.08;;
21979;SDS011;11154;48.558;9.234;2023-03-23T07:29:26;3.33;;;1.40;;
21979;SDS011;11154;48.558;9.234;2023-03-23T07:31:28;1.52;;;1.23;;
21979;SDS011;11154;48.558;9.234;2023-03-23T07:33:30;2.72;;;1.50;;
21979;SDS011;11154;48.558;9.234;2023-03-23T07:35:31;6.50;;;1.50;;
21979;SDS011;11154;48.558;9.234;2023-03-23T07:37:33;1.67;;;1.40;;
21979;SDS011;11154;48.558;9.234;2023-03-23T07:39:35;2.00;;;1.20;;
21979;SDS011;11154;48.558;9.234;2023-03-23T07:41:37;4.18;;;1.10;;
21979;SDS011;11154;48.558;9.234;2023-03-23T07:43:41;3.15;;;1.40;;
21979;SDS011;11154;48.558;9.234;2023-03-23T07:45:42;2.30;;;1.17;;
21979;SDS011;11154;48.558;9.234;2023-03-23T07:47:44;3.50;;;1.30;;
21979;SDS011;11154;48.558;9.234;2023-03-23T07:49:46;1.30;;;1.20;;
21979;SDS011;11154;48.558;9.234;2023-03-23T07:51:47;3.40;;;1.23;;
21979;SDS011;11154;48.558;9.234;2023-03-23T07:53:49;3.50;;;1.40;;
21979;SDS011;11154;48.558;9.234;2023-03-23T07:55:51;3.13;;;1.50;;
21979;SDS011;11154;48.558;9.234;2023-03-23T07:57:54;2.20;;;1.80;;
21979;SDS011;11154;48.558;9.234;2023-03-23T07:59:57;2.45;;;1.48;;
21979;SDS011;11154;48.558;9.234;2023-03-23T08:01:59;2.22;;;1.40;;
21979;SDS011;11154;48.558;9.234;2023-03-23T08:04:01;4.25;;;1.63;;
21979;SDS011;11154;48.558;9.234;2023-03-23T08:06:03;3.22;;;1.60;;
21979;SDS011;11154;48.558;9.234;2023-03-23T08:08:05;4.03;;;1.70;;
21979;SDS011;11154;48.558;9.234;2023-03-23T08:10:08;3.30;;;1.70;;
21979;SDS011;11154;48.558;9.234;2023-03-23T08:12:11;4.43;;;1.75;;
21979;SDS011;11154;48.558;9.234;2023-03-23T08:14:13;2.55;;;1.42;;
21979;SDS011;11154;48.558;9.234;2023-03-23T08:16:16;3.88;;;1.40;;
21979;SDS011;11154;48.558;9.234;2023-03-23T08:18:18;2.58;;;1.30;;
21979;SDS011;11154;48.558;9.234;2023-03-23T08:20:20;4.57;;;1.67;;
21979;SDS011;11154;48.558;9.234;2023-03-23T08:22:25;2.28;;;1.30;;
21979;SDS011;11154;48.558;9.234;2023-03-23T08:24:29;6.25;;;1.60;;
21979;SDS011;11154;48.558;9.234;2023-03-23T08:26:30;5.60;;;1.67;;
21979;SDS011;11154;48.558;9.234;2023-03-23T08:28:32;3.25;;;1.25;;
21979;SDS011;11154;48.558;9.234;2023-03-23T08:30:35;2.88;;;1.52;;
21979;SDS011;11154;48.558;9.234;2023-03-23T08:32:39;2.58;;;1.40;;
21979;SDS011;11154;48.558;9.234;2023-03-23T08:34:41;4.50;;;1.30;;
21979;SDS011;11154;48.558;9.234;2023-03-23T08:36:43;1.95;;;1.20;;
21979;SDS011;11154;48.558;9.234;2023-03-23T08:38:46;1.42;;;1.05;;
21979;SDS011;11154;48.558;9.234;2023-03-23T08:40:48;2.88;;;1.13;;
21979;SDS011;11154;48.558;9.234;2023-03-23T08:42:51;1.95;;;1.23;;
21979;SDS011;11154;48.558;9.234;2023-03-23T08:44:53;3.20;;;1.40;;
21979;SDS011;11154;48.558;9.234;2023-03-23T08:46:55;3.20;;;1.25;;
21979;SDS011;11154;48.558;9.234;2023-03-23T08:48:59;1.83;;;1.20;;
21979;SDS011;11154;48.558;9.234;2023-03-23T08:51:00;3.38;;;1.30;;
21979;SDS011;11154;48.558;9.234;2023-03-23T08:53:02;1.50;;;1.13;;
21979;SDS011;11154;48.558;9.234;2023-03-23T08:55:04;4.35;;;1.60;;
21979;SDS011;11154;48.558;9.234;2023-03-23T08:57:08;3.17;;;1.50;;
21979;SDS011;11154;48.558;9.234;2023-03-23T08:59:10;2.42;;;1.20;;
21979;SDS011;11154;48.558;9.234;2023-03-23T09:01:12;2.15;;;1.20;;
21979;SDS011;11154;48.558;9.234;2023-03-23T09:03:14;1.88;;;1.08;;
21979;SDS011;11154;48.558;9.234;2023-03-23T09:05:19;1.50;;;1.20;;
21979;SDS011;11154;48.558;9.234;2023-03-23T09:07:24;1.73;;;1.10;;
21979;SDS011;11154;48.558;9.234;2023-03-23T09:09:25;1.55;;;1.30;;
21979;SDS011;11154;48.558;9.234;2023-03-23T09:11:27;2.88;;;1.40;;
21979;SDS011;11154;48.558;9.234;2023-03-23T09:13:29;2.90;;;1.42;;
21979;SDS011;11154;48.558;9.234;2023-03-23T09:15:31;1.63;;;1.02;;
21979;SDS011;11154;48.558;9.234;2023-03-23T09:17:33;1.63;;;1.42;;
21979;SDS011;11154;48.558;9.234;2023-03-23T09:19:35;1.27;;;1.13;;
21979;SDS011;11154;48.558;9.234;2023-03-23T09:21:38;4.03;;;1.25;;
21979;SDS011;11154;48.558;9.234;2023-03-23T09:23:39;1.40;;;0.95;;
21979;SDS011;11154;48.558;9.234;2023-03-23T09:25:44;2.60;;;1.50;;
21979;SDS011;11154;48.558;9.234;2023-03-23T09:27:46;2.55;;;1.20;;
21979;SDS011;11154;48.558;9.234;2023-03-23T09:29:52;2.00;;;1.13;;
21979;SDS011;11154;48.558;9.234;2023-03-23T09:31:55;2.25;;;1.02;;
21979;SDS011;11154;48.558;9.234;2023-03-23T09:33:58;1.85;;;1.20;;
21979;SDS011;11154;48.558;9.234;2023-03-23T09:36:01;1.35;;;1.00;;
21979;SDS011;11154;48.558;9.234;2023-03-23T09:38:06;1.77;;;1.23;;
21979;SDS011;11154;48.558;9.234;2023-03-23T09:40:10;3.92;;;1.33;;
21979;SDS011;11154;48.558;9.234;2023-03-23T09:42:18;1.77;;;1.20;;
21979;SDS011;11154;48.558;9.234;2023-03-23T09:44:42;2.10;;;0.93;;
21979;SDS011;11154;48.558;9.234;2023-03-23T09:46:57;2.40;;;0.98;;
21979;SDS011;11154;48.558;9.234;2023-03-23T09:49:07;2.03;;;1.25;;
21979;SDS011;11154;48.558;9.234;2023-03-23T09:51:16;2.13;;;1.20;;
21979;SDS011;11154;48.558;9.234;2023-03-23T09:53:28;2.00;;;1.10;;
21979;SDS011;11154;48.558;9.234;2023-03-23T09:55:35;3.50;;;1.10;;
21979;SDS011;11154;48.558;9.234;2023-03-23T09:57:40;3.42;;;1.73;;
21979;SDS011;11154;48.558;9.234;2023-03-23T09:59:47;3.35;;;1.20;;
21979;SDS011;11154;48.558;9.234;2023-03-23T10:01:55;1.38;;;1.00;;
21979;SDS011;11154;48.558;9.234;2023-03-23T10:06:09;2.50;;;1.20;;
21979;SDS011;11154;48.558;9.234;2023-03-23T10:08:13;5.35;;;1.48;;
21979;SDS011;11154;48.558;9.234;2023-03-23T10:10:18;2.33;;;1.15;;
21979;SDS011;11154;48.558;9.234;2023-03-23T10:12:21;6.40;;;1.33;;
21979;SDS011;11154;48.558;9.234;2023-03-23T10:14:32;1.50;;;1.40;;
21979;SDS011;11154;48.558;9.234;2023-03-23T10:16:42;1.67;;;1.15;;
21979;SDS011;11154;48.558;9.234;2023-03-23T10:18:51;1.17;;;0.93;;
21979;SDS011;11154;48.558;9.234;2023-03-23T10:21:00;4.18;;;1.05;;
21979;SDS011;11154;48.558;9.234;2023-03-23T10:23:08;1.35;;;1.02;;
21979;SDS011;11154;48.558;9.234;2023-03-23T10:25:15;1.85;;;1.02;;
21979;SDS011;11154;48.558;9.234;2023-03-23T10:27:23;1.20;;;0.90;;
21979;SDS011;11154;48.558;9.234;2023-03-23T10:29:29;3.10;;;1.10;;
21979;SDS011;11154;48.558;9.234;2023-03-23T10:31:34;3.38;;;1.20;;
21979;SDS011;11154;48.558;9.234;2023-03-23T10:33:43;1.93;;;1.10;;
21979;SDS011;11154;48.558;9.234;2023-03-23T10:35:47;3.55;;;1.38;;
21979;SDS011;11154;48.558;9.234;2023-03-23T10:37:53;2.08;;;0.90;;
21979;SDS011;11154;48.558;9.234;2023-03-23T10:40:01;1.63;;;1.13;;
21979;SDS011;11154;48.558;9.234;2023-03-23T10:42:10;2.10;;;0.98;;
21979;SDS011;11154;48.558;9.234;2023-03-23T10:44:13;1.42;;;0.80;;
21979;SDS011;11154;48.558;9.234;2023-03-23T10:46:21;3.53;;;1.23;;
21979;SDS011;11154;48.558;9.234;2023-03-23T10:48:29;1.83;;;1.10;;
21979;SDS011;11154;48.558;9.234;2023-03-23T10:50:34;0.80;;;0.80;;
21979;SDS011;11154;48.558;9.234;2023-03-23T10:52:38;1.92;;;1.20;;
21979;SDS011;11154;48.558;9.234;2023-03-23T10:54:46;2.35;;;1.10;;
21979;SDS011;11154;48.558;9.234;2023-03-23T10:56:50;2.63;;;1.20;;
21979;SDS011;11154;48.558;9.234;2023-03-23T10:58:53;2.00;;;0.95;;
21979;SDS011;11154;48.558;9.234;2023-03-23T11:00:56;1.50;;;0.98;;
21979;SDS011;11154;48.558;9.234;2023-03-23T11:03:00;1.30;;;0.90;;
21979;SDS011;11154;48.558;9.234;2023-03-23T11:05:06;1.58;;;1.15;;
21979;SDS011;11154;48.558;9.234;2023-03-23T11:07:20;2.35;;;1.08;;
21979;SDS011;11154;48.558;9.234;2023-03-23T11:09:36;2.75;;;1.10;;
21979;SDS011;11154;48.558;9.234;2023-03-23T11:11:39;2.67;;;1.20;;
21979;SDS011;11154;48.558;9.234;2023-03-23T11:13:44;1.38;;;1.10;;
21979;SDS011;11154;48.558;9.234;2023-03-23T11:15:49;2.42;;;1.20;;
21979;SDS011;11154;48.558;9.234;2023-03-23T11:17:58;1.45;;;1.00;;
21979;SDS011;11154;48.558;9.234;2023-03-23T11:20:09;3.15;;;1.20;;
21979;SDS011;11154;48.558;9.234;2023-03-23T11:22:13;1.23;;;0.90;;
21979;SDS011;11154;48.558;9.234;2023-03-23T11:24:18;1.83;;;1.23;;
21979;SDS011;11154;48.558;9.234;2023-03-23T11:26:23;1.38;;;0.98;;
21979;SDS011;11154;48.558;9.234;2023-03-23T11:28:29;2.05;;;1.10;;
21979;SDS011;11154;48.558;9.234;2023-03-23T11:30:35;1.90;;;1.20;;
21979;SDS011;11154;48.558;9.234;2023-03-23T11:32:42;2.42;;;1.00;;
21979;SDS011;11154;48.558;9.234;2023-03-23T11:34:45;2.97;;;1.10;;
21979;SDS011;11154;48.558;9.234;2023-03-23T11:36:50;2.10;;;1.25;;
21979;SDS011;11154;48.558;9.234;2023-03-23T11:38:54;1.75;;;1.00;;
21979;SDS011;11154;48.558;9.234;2023-03-23T11:40:57;2.63;;;1.08;;
21979;SDS011;11154;48.558;9.234;2023-03-23T11:43:01;3.42;;;1.10;;
21979;SDS011;11154;48.558;9.234;2023-03-23T11:45:13;1.58;;;1.05;;
21979;SDS011;11154;48.558;9.234;2023-03-23T11:47:20;1.58;;;0.80;;
21979;SDS011;11154;48.558;9.234;2023-03-23T11:49:32;1.55;;;1.10;;
21979;SDS011;11154;48.558;9.234;2023-03-23T11:51:41;3.42;;;1.67;;
21979;SDS011;11154;48.558;9.234;2023-03-23T11:53:48;1.55;;;1.10;;
21979;SDS011;11154;48.558;9.234;2023-03-23T11:55:57;2.67;;;1.10;;
21979;SDS011;11154;48.558;9.234;2023-03-23T12:00:16;1.75;;;1.10;;
21979;SDS011;11154;48.558;9.234;2023-03-23T12:02:25;2.35;;;1.30;;
21979;SDS011;11154;48.558;9.234;2023-03-23T12:04:50;2.88;;;1.27;;
21979;SDS011;11154;48.558;9.234;2023-03-23T12:07:02;1.65;;;1.08;;
21979;SDS011;11154;48.558;9.234;2023-03-23T12:09:18;1.27;;;1.10;;
21979;SDS011;11154;48.558;9.234;2023-03-23T12:11:31;1.77;;;0.90;;
21979;SDS011;11154;48.558;9.234;2023-03-23T12:13:42;2.65;;;1.02;;
21979;SDS011;11154;48.558;9.234;2023-03-23T12:15:54;1.23;;;1.08;;
21979;SDS011;11154;48.558;9.234;2023-03-23T12:18:04;2.40;;;1.20;;
21979;SDS011;11154;48.558;9.234;2023-03-23T12:20:20;1.30;;;0.80;;
21979;SDS011;11154;48.558;9.234;2023-03-23T12:22:32;3.30;;;1.20;;
21979;SDS011;11154;48.558;9.234;2023-03-23T12:24:48;2.95;;;1.13;;
21979;SDS011;11154;48.558;9.234;2023-03-23T12:26:58;1.77;;;1.10;;
21979;SDS011;11154;48.558;9.234;2023-03-23T12:29:08;1.55;;;1.00;;
21979;SDS011;11154;48.558;9.234;2023-03-23T12:31:22;1.75;;;1.00;;
21979;SDS011;11154;48.558;9.234;2023-03-23T12:33:33;1.67;;;0.93;;
21979;SDS011;11154;48.558;9.234;2023-03-23T12:35:50;1.10;;;1.00;;
21979;SDS011;11154;48.558;9.234;2023-03-23T12:38:10;2.67;;;1.35;;